Time;durP1;ratioP1;P1;durP2;ratioP2;P2;SDS_P1;SDS_P2;PMS_P1;PMS_P2;Temp;Humidity;BMP_temperature;BMP_pressure;BME280_temperature;BME280_humidity;BME280_pressure;Samples;Min_cycle;Max_cycle;Signal;HPM_P1;HPM_P2
2023/08/23 00:00:09;;;;;;;4.93;3.50;;;;;;;-146.27;89.96;81982.44;5028941;28;20025;-68
2023/08/23 00:02:34;;;;;;;6.47;3.30;;;;;;;-146.27;89.69;82012.56;5028211;28;20021;-69
2023/08/23 00:05:00;;;;;;;7.88;3.63;;;;;;;-146.27;90.51;82018.59;5030644;28;20485;-69
2023/08/23 00:07:25;;;;;;;6.60;3.58;;;;;;;-146.27;90.58;82022.63;5027293;28;20210;-69
2023/08/23 00:09:50;;;;;;;7.47;4.15;;;;;;;-146.27;90.48;82082.88;5028108;28;20028;-69
2023/08/23 00:12:16;;;;;;;9.82;4.47;;;;;;;-146.27;90.91;82058.78;5029036;28;20264;-68
2023/08/23 00:14:42;;;;;;;6.95;4.10;;;;;;;-146.27;90.91;82054.75;5027622;28;20037;-68
2023/08/23 00:17:07;;;;;;;6.78;3.92;;;;;;;-146.27;90.25;82050.75;5030139;28;20033;-68
2023/08/23 00:19:33;;;;;;;5.40;4.40;;;;;;;-146.27;90.49;82106.97;5027515;28;20025;-68
2023/08/23 00:21:58;;;;;;;9.40;4.25;;;;;;;-146.27;91.06;82082.88;5029883;28;20411;-69
2023/08/23 00:24:23;;;;;;;7.18;3.75;;;;;;;-146.27;90.80;82038.69;5029276;28;20030;-68
2023/08/23 00:26:49;;;;;;;5.35;3.70;;;;;;;-146.27;91.42;82086.91;5028380;28;20021;-68
2023/08/23 00:29:14;;;;;;;6.05;4.10;;;;;;;-146.27;91.02;82060.78;5015626;28;20053;-68
2023/08/23 00:31:40;;;;;;;7.70;4.13;;;;;;;-146.27;91.34;82038.69;5028504;28;20064;-69
2023/08/23 00:34:05;;;;;;;11.20;3.95;;;;;;;-146.27;90.93;82046.72;5029097;28;20144;-68
2023/08/23 00:36:34;;;;;;;6.40;3.83;;;;;;;-146.27;91.16;82044.72;5029469;28;20091;-69
2023/08/23 00:38:59;;;;;;;6.68;3.80;;;;;;;-146.27;91.86;82058.78;5028671;28;20063;-70
2023/08/23 00:41:24;;;;;;;8.25;3.60;;;;;;;-146.27;91.03;82070.81;5028621;28;20032;-70
2023/08/23 00:43:50;;;;;;;7.15;4.03;;;;;;;-146.27;91.30;82082.88;5029656;28;20026;-70
2023/08/23 00:46:17;;;;;;;5.95;3.85;;;;;;;-146.27;91.39;82090.91;5029566;28;20084;-70
2023/08/23 00:48:44;;;;;;;6.90;3.83;;;;;;;-146.27;91.48;82106.97;5028513;28;20022;-69
2023/08/23 00:51:11;;;;;;;7.32;3.60;;;;;;;-146.27;91.58;82062.78;5028650;28;20398;-69
2023/08/23 00:53:37;;;;;;;8.23;4.10;;;;;;;-146.27;91.40;82078.84;5027336;28;20095;-71
2023/08/23 00:56:04;;;;;;;7.90;3.83;;;;;;;-146.27;92.20;82054.75;5028267;28;20037;-69
2023/08/23 00:58:29;;;;;;;11.02;4.18;;;;;;;-146.27;91.33;82084.88;5027954;28;20025;-70
2023/08/23 01:00:56;;;;;;;10.38;4.03;;;;;;;-146.27;91.91;82074.84;5017229;28;20025;-68
2023/08/23 01:03:24;;;;;;;8.25;3.83;;;;;;;-146.27;91.89;82068.81;5026888;28;20040;-69
2023/08/23 01:06:10;;;;;;;5.78;3.30;;;;;;;-146.27;92.02;82056.75;5030060;28;20021;-69
2023/08/23 01:09:03;;;;;;;6.03;4.10;;;;;;;-146.27;92.31;82042.69;5024266;28;20520;-69
2023/08/23 01:11:47;;;;;;;8.10;3.97;;;;;;;-146.27;92.04;82054.75;5026223;28;20034;-70
2023/08/23 01:14:26;;;;;;;10.63;3.58;;;;;;;-146.27;92.04;82104.97;5029803;28;20026;-68
2023/08/23 01:16:53;;;;;;;6.70;3.88;;;;;;;-146.27;92.12;82074.84;5026072;28;20176;-69
2023/08/23 01:19:51;;;;;;;11.60;4.28;;;;;;;-146.27;92.21;82109.00;5019424;28;20076;-69
2023/08/23 01:22:22;;;;;;;10.80;4.10;;;;;;;-146.27;92.42;82123.06;5025440;28;20068;-69
2023/08/23 01:24:48;;;;;;;7.25;3.72;;;;;;;-146.27;92.40;82117.03;5027985;28;20112;-70
2023/08/23 01:27:17;;;;;;;6.32;3.20;;;;;;;-146.27;92.51;82078.84;5016157;28;20037;-69
2023/08/23 01:29:46;;;;;;;8.13;4.07;;;;;;;-146.27;92.11;82141.13;5020678;28;20048;-70
2023/08/23 01:32:34;;;;;;;7.22;3.28;;;;;;;-146.27;91.84;82106.97;5027586;28;20053;-70
2023/08/23 01:35:09;;;;;;;12.88;4.00;;;;;;;-146.27;91.97;82141.13;5028287;28;20087;-69
2023/08/23 01:37:39;;;;;;;8.20;3.88;;;;;;;-146.27;92.33;82143.13;5024322;28;20037;-69
2023/08/23 01:40:08;;;;;;;6.53;3.63;;;;;;;-146.27;92.57;82177.28;5026626;28;20079;-69
2023/08/23 01:42:35;;;;;;;5.88;4.05;;;;;;;-146.27;92.47;82131.09;5028066;28;20041;-69
2023/08/23 01:45:02;;;;;;;6.55;3.70;;;;;;;-146.27;92.30;82119.03;5027020;28;20490;-69
2023/08/23 01:47:28;;;;;;;7.25;3.50;;;;;;;-146.27;92.48;82149.16;5026439;28;20116;-71
2023/08/23 01:49:53;;;;;;;7.32;3.75;;;;;;;-146.27;92.64;82153.19;5026514;28;20112;-71
2023/08/23 01:52:18;;;;;;;8.55;4.80;;;;;;;-146.27;93.37;82100.97;5027953;28;20036;-71
2023/08/23 01:54:44;;;;;;;7.90;4.55;;;;;;;-146.27;93.03;82131.09;5027385;28;20048;-72
2023/08/23 01:57:09;;;;;;;9.18;4.20;;;;;;;-146.27;92.48;82109.00;5026225;28;20048;-72
2023/08/23 01:59:37;;;;;;;11.20;4.63;;;;;;;-146.27;92.96;82143.13;5027187;28;20026;-72
2023/08/23 02:02:02;;;;;;;8.32;5.03;;;;;;;-146.27;93.12;82086.91;5026966;28;20036;-71
2023/08/23 02:04:28;;;;;;;7.93;4.03;;;;;;;-146.27;93.38;82086.91;5027533;28;20109;-71
2023/08/23 02:06:53;;;;;;;8.00;4.95;;;;;;;-146.27;92.58;82074.84;5025107;28;20112;-71
2023/08/23 02:09:18;;;;;;;7.93;4.28;;;;;;;-146.27;93.30;82094.94;5032126;28;20126;-71
2023/08/23 02:11:44;;;;;;;7.72;4.10;;;;;;;-146.27;92.04;82062.78;5030114;28;20045;-72
2023/08/23 02:14:09;;;;;;;7.18;4.22;;;;;;;-146.27;92.21;82070.81;5030092;28;20026;-72
2023/08/23 02:16:34;;;;;;;8.40;5.00;;;;;;;-146.27;91.85;82113.00;5030115;28;20033;-72
2023/08/23 02:19:00;;;;;;;8.00;4.13;;;;;;;-146.27;91.45;82102.97;5031512;28;20026;-71
2023/08/23 02:21:25;;;;;;;6.35;4.32;;;;;;;-146.27;92.09;82119.03;5030753;28;20029;-71
2023/08/23 02:23:50;;;;;;;9.95;3.95;;;;;;;-146.27;93.41;82062.78;5031562;28;20029;-74
2023/08/23 02:26:16;;;;;;;8.85;4.35;;;;;;;-146.27;93.17;82078.84;5031287;28;20036;-71
2023/08/23 02:28:42;;;;;;;12.23;3.88;;;;;;;-146.27;92.98;82088.91;5029478;28;20026;-72
2023/08/23 02:31:07;;;;;;;7.60;3.95;;;;;;;-146.27;94.03;82070.81;5030427;28;20075;-71
2023/08/23 02:33:33;;;;;;;9.35;4.55;;;;;;;-146.27;93.67;82078.84;5031714;28;20017;-71
2023/08/23 02:35:58;;;;;;;7.00;5.30;;;;;;;-146.27;93.63;82062.78;5029884;28;20033;-71
2023/08/23 02:38:24;;;;;;;8.98;4.60;;;;;;;-146.27;93.70;82044.72;5030580;28;20033;-71
2023/08/23 02:40:49;;;;;;;8.70;5.03;;;;;;;-146.27;93.52;82038.69;5031381;28;20029;-72
2023/08/23 02:43:14;;;;;;;9.45;5.00;;;;;;;-146.27;93.41;82034.66;5031999;28;20030;-71
2023/08/23 02:45:40;;;;;;;16.67;5.93;;;;;;;-146.27;93.02;82022.63;5030452;28;20156;-70
2023/08/23 02:48:08;;;;;;;9.88;4.65;;;;;;;-146.27;92.39;82018.59;5029264;28;20373;-71
2023/08/23 02:50:33;;;;;;;7.13;4.82;;;;;;;-146.27;93.15;82048.72;5028222;28;20018;-71
2023/08/23 02:52:59;;;;;;;6.88;4.88;;;;;;;-146.27;91.99;82010.56;5026899;28;20112;-70
2023/08/23 02:55:24;;;;;;;11.98;5.03;;;;;;;-146.27;93.39;82038.69;5031049;28;20056;-70
2023/08/23 02:57:49;;;;;;;10.73;5.00;;;;;;;-146.27;93.60;82038.69;5030696;28;20037;-68
2023/08/23 03:00:15;;;;;;;10.23;5.20;;;;;;;-146.27;93.03;82012.56;5030269;28;20118;-68
2023/08/23 03:02:40;;;;;;;9.35;6.47;;;;;;;-146.27;93.36;81986.47;5031142;28;20041;-68
2023/08/23 03:05:06;;;;;;;10.50;6.10;;;;;;;-146.27;93.52;82014.59;5024531;28;20049;-67
2023/08/23 03:07:31;;;;;;;9.90;5.63;;;;;;;-146.27;93.18;81996.50;5026359;28;20471;-69
2023/08/23 03:09:57;;;;;;;7.68;5.85;;;;;;;-146.27;93.66;82006.53;5031781;28;20060;-68
2023/08/23 03:12:22;;;;;;;7.35;5.38;;;;;;;-146.27;93.61;81986.47;5031689;28;20033;-70
2023/08/23 03:14:48;;;;;;;11.68;6.05;;;;;;;-146.27;93.35;82030.66;5029260;28;20037;-68
2023/08/23 03:17:13;;;;;;;10.85;5.47;;;;;;;-146.27;92.56;81990.47;5029270;28;20116;-68
2023/08/23 03:19:38;;;;;;;9.02;5.30;;;;;;;-146.27;92.58;82006.53;5026396;28;20044;-69
2023/08/23 03:22:04;;;;;;;11.50;5.50;;;;;;;-146.27;92.73;82036.69;5029234;28;20024;-69
2023/08/23 03:24:29;;;;;;;12.07;6.28;;;;;;;-146.27;92.95;82052.75;5030627;28;20034;-69
2023/08/23 03:26:54;;;;;;;10.10;5.00;;;;;;;-146.27;93.60;82094.94;5031309;28;20030;-69
2023/08/23 03:29:20;;;;;;;8.73;5.15;;;;;;;-146.27;93.90;82094.94;5028503;28;20034;-69
2023/08/23 03:31:45;;;;;;;6.35;5.22;;;;;;;-146.27;93.61;82044.72;5030202;28;20029;-69
2023/08/23 03:34:10;;;;;;;7.72;5.35;;;;;;;-146.27;94.40;82127.06;5025649;28;20120;-68
2023/08/23 03:36:36;;;;;;;12.07;5.22;;;;;;;-146.27;93.88;82129.06;5030862;28;20537;-68
2023/08/23 03:39:01;;;;;;;10.45;5.40;;;;;;;-146.27;94.67;82102.97;5027707;28;20435;-68
2023/08/23 03:41:26;;;;;;;10.93;5.43;;;;;;;-146.27;94.43;82111.00;5028756;28;20057;-68
2023/08/23 03:43:52;;;;;;;7.93;5.70;;;;;;;-146.27;94.22;82090.91;5031343;28;20469;-70
2023/08/23 03:46:22;;;;;;;9.60;5.35;;;;;;;-146.27;93.72;82102.97;5029804;28;20537;-68
2023/08/23 03:48:48;;;;;;;12.75;6.07;;;;;;;-146.27;94.46;82113.00;5028580;28;20063;-67
2023/08/23 03:51:13;;;;;;;7.43;4.95;;;;;;;-146.27;94.42;82086.91;5029954;28;20444;-68
2023/08/23 03:53:38;;;;;;;10.75;5.47;;;;;;;-146.27;94.43;82143.13;5030579;28;20435;-69
2023/08/23 03:56:04;;;;;;;7.40;5.43;;;;;;;-146.27;94.46;82161.22;5029389;28;20083;-68
2023/08/23 03:58:29;;;;;;;7.95;5.38;;;;;;;-146.27;94.42;82201.38;5028921;28;20140;-71
2023/08/23 04:00:54;;;;;;;7.95;5.47;;;;;;;-146.27;95.43;82163.22;5028208;28;20108;-70
2023/08/23 04:03:20;;;;;;;10.23;5.60;;;;;;;-146.27;95.07;82207.41;5029960;28;20026;-70
2023/08/23 04:05:45;;;;;;;7.88;5.03;;;;;;;-146.27;94.75;82189.34;5027949;28;20057;-68
2023/08/23 04:08:11;;;;;;;8.15;5.03;;;;;;;-146.27;94.88;82197.38;5025008;28;20080;-70
2023/08/23 04:10:37;;;;;;;8.85;5.30;;;;;;;-146.27;95.29;82159.22;5017255;28;20191;-70
2023/08/23 04:13:02;;;;;;;10.60;5.32;;;;;;;-146.27;95.04;82195.38;5030014;28;20029;-70
2023/08/23 04:15:27;;;;;;;8.18;5.80;;;;;;;-146.27;95.50;82187.31;5029835;28;20020;-70
2023/08/23 04:17:53;;;;;;;12.18;6.03;;;;;;;-146.27;96.20;82179.28;5027193;28;20017;-71
2023/08/23 04:20:18;;;;;;;13.73;7.05;;;;;;;-146.27;96.02;82175.28;5027610;28;20044;-70
2023/08/23 04:22:43;;;;;;;13.50;6.35;;;;;;;-146.27;96.04;82155.19;5026982;28;20032;-70
2023/08/23 04:25:10;;;;;;;12.02;6.20;;;;;;;-146.27;95.79;82123.06;5028976;28;20025;-72
2023/08/23 04:27:36;;;;;;;15.85;7.47;;;;;;;-146.27;95.93;82123.06;5030553;28;20100;-71
2023/08/23 04:30:01;;;;;;;15.90;8.43;;;;;;;-146.27;96.57;82117.03;5027664;28;20021;-72
2023/08/23 04:32:27;;;;;;;14.73;7.47;;;;;;;-146.27;96.43;82092.91;5027095;28;20014;-72
2023/08/23 04:34:52;;;;;;;14.55;7.80;;;;;;;-146.27;95.84;82094.94;5028196;28;20409;-72
2023/08/23 04:37:17;;;;;;;17.70;7.97;;;;;;;-146.27;96.12;82127.06;5029236;28;20033;-71
2023/08/23 04:39:43;;;;;;;15.98;7.38;;;;;;;-146.27;95.89;82066.81;5028217;28;20031;-72
2023/08/23 04:42:08;;;;;;;18.70;8.18;;;;;;;-146.27;96.41;82104.97;5029029;28;20535;-71
2023/08/23 04:44:33;;;;;;;21.90;9.00;;;;;;;-146.27;96.44;82090.91;5029623;28;20929;-72
2023/08/23 04:46:59;;;;;;;16.67;8.30;;;;;;;-146.27;96.17;82098.94;5029865;28;20112;-72
2023/08/23 04:49:24;;;;;;;19.77;8.77;;;;;;;-146.27;96.14;82113.00;5027532;28;20112;-72
2023/08/23 04:51:50;;;;;;;17.85;9.20;;;;;;;-146.27;97.16;82102.97;5027187;28;20117;-72
2023/08/23 04:54:15;;;;;;;20.83;9.10;;;;;;;-146.27;96.36;82090.91;5028847;28;20033;-71
2023/08/23 04:56:40;;;;;;;21.95;9.45;;;;;;;-146.27;96.36;82098.94;5026701;28;20087;-71
2023/08/23 04:59:06;;;;;;;19.75;9.13;;;;;;;-146.27;95.98;82064.81;5028021;28;20033;-71
2023/08/23 05:01:31;;;;;;;22.90;8.70;;;;;;;-146.27;96.15;82098.94;5021438;28;20489;-72
2023/08/23 05:03:56;;;;;;;23.60;8.85;;;;;;;-146.27;96.41;82078.84;5021949;28;20018;-72
2023/08/23 05:06:22;;;;;;;19.70;10.38;;;;;;;-146.27;96.39;82094.94;5018682;28;20025;-72
2023/08/23 05:08:47;;;;;;;17.33;9.40;;;;;;;-146.27;96.93;82062.78;5022972;28;20132;-71
2023/08/23 05:11:13;;;;;;;25.92;10.73;;;;;;;-146.27;96.98;82082.88;5028511;28;20052;-71
2023/08/23 05:13:38;;;;;;;26.98;10.93;;;;;;;-146.27;96.97;82056.75;5029934;28;20128;-71
2023/08/23 05:16:04;;;;;;;28.05;11.25;;;;;;;-146.27;97.39;82010.56;5028186;28;20025;-71
2023/08/23 05:18:29;;;;;;;21.20;11.07;;;;;;;-146.27;97.43;82046.72;5028845;28;20112;-72
2023/08/23 05:20:59;;;;;;;23.23;10.60;;;;;;;-146.27;97.20;82054.75;5023987;28;20053;-72
2023/08/23 05:23:25;;;;;;;28.40;10.85;;;;;;;-146.27;97.26;82004.53;5019062;28;20029;-71
2023/08/23 05:25:52;;;;;;;19.73;10.73;;;;;;;-146.27;97.75;81992.50;5017540;28;20063;-71
2023/08/23 05:28:21;;;;;;;27.23;11.30;;;;;;;-146.27;98.05;82044.72;5027077;28;20437;-72
2023/08/23 05:30:47;;;;;;;30.88;12.07;;;;;;;-146.27;98.02;82000.53;5023253;28;20028;-72
2023/08/23 05:33:13;;;;;;;27.05;13.50;;;;;;;-146.27;98.66;81978.44;5019350;28;20049;-71
2023/08/23 05:35:43;;;;;;;27.85;13.98;;;;;;;-146.27;99.43;81938.25;5020232;28;20064;-71
2023/08/23 05:38:09;;;;;;;37.83;14.27;;;;;;;-146.27;99.95;81946.28;5022199;28;20393;-72
2023/08/23 05:40:35;;;;;;;34.53;14.20;;;;;;;-146.27;100.00;81912.16;5018886;28;20029;-72
2023/08/23 05:43:01;;;;;;;36.00;15.18;;;;;;;-146.27;100.00;81910.13;5028969;28;20067;-71
2023/08/23 05:45:26;;;;;;;43.20;16.08;;;;;;;-146.27;100.00;81892.06;5032255;28;20392;-71
2023/08/23 05:47:55;;;;;;;47.40;16.88;;;;;;;-146.27;100.00;81882.00;5029394;28;20505;-70
2023/08/23 05:50:21;;;;;;;37.10;15.38;;;;;;;-146.27;100.00;81865.94;5027363;28;20033;-70
2023/08/23 05:52:46;;;;;;;44.85;16.45;;;;;;;-146.27;100.00;81873.97;5028333;28;20097;-71
2023/08/23 05:55:12;;;;;;;43.35;17.75;;;;;;;-146.27;100.00;81819.75;5035003;28;20431;-71
2023/08/23 05:57:37;;;;;;;45.20;17.40;;;;;;;-146.27;100.00;81819.75;5032225;28;20025;-72
2023/08/23 06:00:03;;;;;;;50.53;19.63;;;;;;;-146.27;100.00;81853.91;5032874;28;20029;-68
2023/08/23 06:02:29;;;;;;;51.33;18.50;;;;;;;-146.27;100.00;81801.69;5032091;28;20708;-67
2023/08/23 06:04:54;;;;;;;54.75;19.30;;;;;;;-146.27;100.00;81805.69;5032844;28;20024;-67
2023/08/23 06:07:19;;;;;;;57.15;18.63;;;;;;;-146.27;100.00;81805.69;5034110;28;20029;-67
2023/08/23 06:09:45;;;;;;;54.70;19.48;;;;;;;-146.27;100.00;81815.72;5035490;28;20028;-68
2023/08/23 06:12:10;;;;;;;64.38;22.23;;;;;;;-146.27;100.00;81793.66;5021329;28;20033;-67
2023/08/23 06:14:36;;;;;;;64.75;20.63;;;;;;;-146.27;100.00;81777.56;5029272;28;20033;-67
2023/08/23 06:17:01;;;;;;;68.60;21.60;;;;;;;-146.27;100.00;81775.56;5031716;28;20033;-66
2023/08/23 06:19:27;;;;;;;70.63;22.40;;;;;;;-146.27;100.00;81803.69;5031951;28;20025;-67
2023/08/23 06:21:52;;;;;;;74.70;23.88;;;;;;;-146.27;100.00;81733.38;5032686;28;20025;-67
2023/08/23 06:24:19;;;;;;;68.07;21.85;;;;;;;-146.27;100.00;81749.47;5033044;28;20032;-68
2023/08/23 06:26:46;;;;;;;67.93;23.45;;;;;;;-146.27;100.00;81729.38;5031976;28;20449;-65
2023/08/23 06:29:12;;;;;;;67.05;23.75;;;;;;;-146.27;100.00;81733.38;5031522;28;20029;-65
2023/08/23 06:31:37;;;;;;;69.95;25.33;;;;;;;-146.27;100.00;81721.34;5029606;28;20535;-66
2023/08/23 06:34:04;;;;;;;73.25;25.05;;;;;;;-146.27;100.00;81731.38;5033622;28;20021;-66
2023/08/23 06:36:29;;;;;;;70.35;25.40;;;;;;;-146.27;100.00;81709.28;5032924;28;20059;-66
2023/08/23 06:38:54;;;;;;;84.65;24.92;;;;;;;-146.27;100.00;81745.44;5032503;28;20025;-66
2023/08/23 06:41:20;;;;;;;70.82;26.38;;;;;;;-146.27;100.00;81699.25;5034873;28;20033;-66
2023/08/23 06:43:47;;;;;;;75.47;26.17;;;;;;;-146.27;100.00;81707.28;5027762;28;20029;-66
2023/08/23 06:46:12;;;;;;;69.20;26.70;;;;;;;-146.27;100.00;81703.25;5030742;28;20021;-67
2023/08/23 06:48:38;;;;;;;77.20;26.20;;;;;;;-146.27;100.00;81721.34;5029691;28;20032;-66
2023/08/23 06:51:03;;;;;;;79.60;26.38;;;;;;;-146.27;100.00;81693.22;5030485;28;20034;-66
2023/08/23 06:53:29;;;;;;;76.25;25.20;;;;;;;-146.27;100.00;81709.28;5030431;28;20032;-67
2023/08/23 06:55:55;;;;;;;71.60;26.45;;;;;;;-146.27;100.00;81669.13;5027252;28;20521;-66
2023/08/23 06:58:20;;;;;;;82.93;26.42;;;;;;;-146.27;100.00;81667.09;5029382;28;21694;-67
2023/08/23 07:00:46;;;;;;;71.80;25.20;;;;;;;-146.27;100.00;81649.03;5029037;28;20029;-66
2023/08/23 07:03:11;;;;;;;75.43;29.45;;;;;;;-146.27;100.00;81636.97;5027994;28;20029;-67
2023/08/23 07:05:37;;;;;;;69.20;27.17;;;;;;;-146.27;100.00;81647.03;5026212;28;20029;-67
2023/08/23 07:08:02;;;;;;;62.90;27.23;;;;;;;-146.27;100.00;81586.78;5026518;28;20052;-68
2023/08/23 07:10:29;;;;;;;63.42;26.77;;;;;;;-146.27;100.00;81602.84;5030495;28;20029;-67
2023/08/23 07:12:55;;;;;;;51.90;23.70;;;;;;;-146.27;100.00;81594.81;5029343;28;20385;-67
2023/08/23 07:15:20;;;;;;;59.20;25.08;;;;;;;-146.27;100.00;81560.66;5027486;28;20029;-66
2023/08/23 07:17:46;;;;;;;61.72;27.33;;;;;;;-146.27;100.00;81496.41;5028846;28;20466;-67
2023/08/23 07:20:13;;;;;;;60.78;26.92;;;;;;;-146.27;100.00;81512.47;5028662;28;20442;-67
2023/08/23 07:22:39;;;;;;;63.17;27.00;;;;;;;-146.27;100.00;81502.41;5030487;28;20503;-67
2023/08/23 07:25:05;;;;;;;61.28;25.70;;;;;;;-146.27;99.80;81474.31;5029211;28;20021;-70
2023/08/23 07:27:30;;;;;;;58.45;25.13;;;;;;;-146.27;99.22;81456.22;5025957;28;20033;-65
2023/08/23 07:29:56;;;;;;;58.05;25.60;;;;;;;-146.27;98.87;81470.28;5028394;28;20112;-71
2023/08/23 07:32:22;;;;;;;53.15;25.50;;;;;;;-146.27;98.39;81466.28;5027909;28;20057;-70
2023/08/23 07:34:47;;;;;;;43.22;22.83;;;;;;;-146.27;98.08;81550.63;5030858;28;20432;-70
2023/08/23 07:37:14;;;;;;;45.20;23.58;;;;;;;-146.27;97.84;81536.56;5028530;28;20113;-69
2023/08/23 07:39:39;;;;;;;48.50;23.65;;;;;;;-146.27;97.78;81498.41;5026519;28;20025;-70
2023/08/23 07:42:05;;;;;;;41.72;23.52;;;;;;;-146.27;97.59;81488.38;5029120;28;20493;-69
2023/08/23 07:44:30;;;;;;;51.88;23.45;;;;;;;-146.27;97.62;81438.16;5028369;28;20067;-69
2023/08/23 07:46:55;;;;;;;47.85;21.42;;;;;;;-146.27;97.22;81492.38;5029338;28;20067;-70
2023/08/23 07:49:21;;;;;;;39.95;21.77;;;;;;;-146.27;96.34;81428.09;5028523;28;20083;-72
2023/08/23 07:51:48;;;;;;;39.30;21.67;;;;;;;-146.27;96.20;81444.19;5026199;28;20038;-70
2023/08/23 07:54:13;;;;;;;42.05;22.08;;;;;;;-146.27;95.66;81402.00;5020799;28;20041;-73
2023/08/23 07:56:39;;;;;;;42.88;20.70;;;;;;;-146.27;95.72;81359.81;5024225;28;20039;-71
2023/08/23 07:59:04;;;;;;;33.10;18.25;;;;;;;-146.27;95.11;81410.03;5027056;28;20536;-71
2023/08/23 08:01:29;;;;;;;38.28;19.15;;;;;;;-146.27;94.65;81387.94;5016218;28;20076;-71
2023/08/23 08:03:55;;;;;;;34.05;16.88;;;;;;;-146.27;94.13;81317.66;5029470;28;20033;-71
2023/08/23 08:06:20;;;;;;;37.65;18.30;;;;;;;-146.27;94.46;81408.03;5028095;28;20061;-68
2023/08/23 08:08:45;;;;;;;34.30;17.67;;;;;;;-146.27;94.06;81323.69;5016930;28;20045;-72
2023/08/23 08:11:12;;;;;;;38.60;18.60;;;;;;;-146.27;94.51;81253.38;5029028;28;20025;-71
2023/08/23 08:13:38;;;;;;;37.85;19.40;;;;;;;-146.27;94.13;81315.66;5024529;28;20470;-71
2023/08/23 08:16:09;;;;;;;36.28;16.80;;;;;;;-146.27;93.91;81315.66;5028871;28;20025;-71
2023/08/23 08:18:35;;;;;;;29.77;15.75;;;;;;;-146.27;93.30;81295.56;5026537;28;20108;-70
2023/08/23 08:21:00;;;;;;;30.25;16.70;;;;;;;-146.27;93.14;81291.53;5027837;28;20545;-70
2023/08/23 08:23:26;;;;;;;38.53;18.45;;;;;;;-146.27;92.49;81285.53;5029647;28;20338;-70
2023/08/23 08:25:51;;;;;;;41.67;19.52;;;;;;;-146.27;92.27;81247.38;5027552;28;20013;-70
2023/08/23 08:28:16;;;;;;;37.80;19.02;;;;;;;-146.27;92.15;81247.38;5023132;28;20068;-70
2023/08/23 08:30:41;;;;;;;30.67;16.75;;;;;;;-146.27;92.01;81203.19;5026850;28;20040;-71
2023/08/23 08:33:07;;;;;;;36.35;19.08;;;;;;;-146.27;91.44;81201.19;5028694;28;20052;-68
2023/08/23 08:35:32;;;;;;;37.90;19.42;;;;;;;-146.27;91.39;81134.91;5024008;28;20307;-68
2023/08/23 08:37:57;;;;;;;38.47;20.70;;;;;;;-146.27;91.59;81098.75;5029110;28;20417;-69
2023/08/23 08:40:23;;;;;;;33.78;17.10;;;;;;;-146.27;91.19;81042.53;5030170;28;20028;-71
2023/08/23 08:42:49;;;;;;;32.75;18.38;;;;;;;-146.27;90.43;81032.50;5030224;28;20057;-70
2023/08/23 08:45:15;;;;;;;35.55;21.98;;;;;;;-146.27;89.90;81098.75;5026441;28;20021;-69
2023/08/23 08:47:42;;;;;;;33.30;18.63;;;;;;;-146.27;89.75;81002.38;5010642;28;20555;-71
2023/08/23 08:50:08;;;;;;;34.70;19.23;;;;;;;-146.27;89.45;80950.16;5029897;28;20021;-72
2023/08/23 08:52:34;;;;;;;31.92;18.35;;;;;;;-146.27;89.48;80938.09;5030215;28;20413;-73
2023/08/23 08:55:01;;;;;;;30.02;17.65;;;;;;;-146.27;89.19;80877.88;5026559;28;20060;-71
2023/08/23 08:57:28;;;;;;;29.70;17.52;;;;;;;-146.27;88.24;80835.69;5029209;28;20033;-72
2023/08/23 08:59:56;;;;;;;34.83;19.33;;;;;;;-146.27;87.56;80783.50;5020677;28;20477;-72
2023/08/23 09:02:23;;;;;;;28.27;17.23;;;;;;;-146.27;88.51;80777.47;5020276;28;20041;-72
2023/08/23 09:04:50;;;;;;;33.42;18.85;;;;;;;-146.27;86.24;80725.25;5017644;28;20308;-74
2023/08/23 09:07:15;;;;;;;32.25;17.63;;;;;;;-146.27;86.09;80759.41;5007088;28;20035;-70
2023/08/23 09:09:42;;;;;;;30.00;15.32;;;;;;;-146.27;86.10;80695.13;5012992;28;20064;-72
2023/08/23 09:12:08;;;;;;;22.38;13.85;;;;;;;-146.27;85.45;80661.00;5019649;28;20029;-71
2023/08/23 09:14:33;;;;;;;25.27;13.63;;;;;;;-146.27;82.60;80640.94;5017387;28;20032;-71
2023/08/23 09:16:58;;;;;;;30.02;13.73;;;;;;;-146.27;82.49;80652.97;5016144;28;20065;-71
2023/08/23 09:19:24;;;;;;;29.63;15.35;;;;;;;-146.27;83.21;80584.69;5014977;28;20548;-71
2023/08/23 09:21:49;;;;;;;21.85;13.38;;;;;;;-146.27;82.72;80544.53;5019583;28;21032;-71
2023/08/23 09:24:15;;;;;;;14.30;9.95;;;;;;;-146.27;80.82;80558.59;5020166;28;20029;-71
2023/08/23 09:26:41;;;;;;;19.15;10.27;;;;;;;-146.27;80.34;80498.38;5021332;28;20025;-72
2023/08/23 09:29:07;;;;;;;19.77;9.07;;;;;;;-146.27;80.59;80460.22;5025158;28;20041;-71
2023/08/23 09:31:32;;;;;;;15.75;9.68;;;;;;;-146.27;80.31;80462.22;5022159;28;20116;-72
2023/08/23 09:34:00;;;;;;;22.63;9.57;;;;;;;-146.27;79.95;80387.94;5021680;28;20025;-68
2023/08/23 09:36:31;;;;;;;15.55;9.45;;;;;;;-146.27;79.52;80335.72;5021495;28;20025;-67
2023/08/23 09:39:00;;;;;;;14.75;8.27;;;;;;;-146.27;79.32;80291.56;5025556;28;20029;-70
2023/08/23 09:41:26;;;;;;;12.30;7.15;;;;;;;-146.27;76.10;80406.00;5024216;28;20128;-71
2023/08/23 09:43:56;;;;;;;15.02;7.05;;;;;;;-146.27;76.27;80267.47;5020595;28;20124;-72
2023/08/23 09:46:27;;;;;;;16.48;6.90;;;;;;;-146.27;75.76;80231.31;5013314;28;20068;-71
2023/08/23 09:48:56;;;;;;;15.70;6.20;;;;;;;-146.27;74.87;80275.50;5017914;28;20385;-73
2023/08/23 09:51:25;;;;;;;17.38;6.10;;;;;;;-146.27;74.73;80159.06;5023898;28;20053;-71
2023/08/23 09:54:00;;;;;;;11.95;5.95;;;;;;;-146.27;72.96;80116.88;5028375;28;20029;-68
2023/08/23 09:56:26;;;;;;;9.88;5.93;;;;;;;-146.27;73.18;80086.78;5017733;28;20041;-71
2023/08/23 09:58:52;;;;;;;6.80;4.32;;;;;;;-146.27;73.21;79994.41;5025581;28;20037;-70
2023/08/23 10:01:18;;;;;;;9.85;4.20;;;;;;;-146.27;70.84;80022.53;5028185;28;20029;-70
2023/08/23 10:03:43;;;;;;;7.97;4.45;;;;;;;-146.27;67.33;79966.31;5028768;28;20033;-69
2023/08/23 10:06:09;;;;;;;6.03;3.33;;;;;;;-146.27;67.07;79892.03;5028326;28;20095;-70
2023/08/23 10:08:38;;;;;;;5.35;2.80;;;;;;;-146.27;61.76;79974.34;5029107;28;20053;-70
2023/08/23 10:11:04;;;;;;;7.15;3.42;;;;;;;-146.27;65.01;79837.84;5027483;28;20048;-69
2023/08/23 10:13:33;;;;;;;6.88;3.45;;;;;;;-146.27;66.56;79791.66;5027132;28;20033;-70
2023/08/23 10:16:00;;;;;;;8.98;3.70;;;;;;;-146.27;64.15;79863.94;5028175;28;20038;-69
2023/08/23 10:18:29;;;;;;;7.13;3.47;;;;;;;-146.27;63.28;79821.78;5025096;28;20114;-68
2023/08/23 10:20:56;;;;;;;12.25;4.18;;;;;;;-146.27;62.62;79821.78;5023094;28;20117;-70
2023/08/23 10:23:22;;;;;;;7.35;3.53;;;;;;;-146.27;64.48;79725.41;5028715;28;20026;-69
2023/08/23 10:25:48;;;;;;;6.20;3.58;;;;;;;-146.27;64.93;79765.56;5028444;28;20025;-69
2023/08/23 10:28:18;;;;;;;11.27;3.58;;;;;;;-146.27;63.54;79667.19;5028728;28;20536;-71
2023/08/23 10:30:49;;;;;;;10.15;3.35;;;;;;;-146.27;62.51;79604.97;5031835;28;20155;-70
2023/08/23 10:33:16;;;;;;;9.82;3.72;;;;;;;-146.27;62.84;79472.47;5032112;28;20164;-71
2023/08/23 10:35:43;;;;;;;10.82;3.50;;;;;;;-146.27;61.80;79430.31;5031629;28;20026;-70
2023/08/23 10:38:09;;;;;;;5.45;2.90;;;;;;;-146.27;62.86;79338.00;5031849;28;20089;-68
2023/08/23 10:40:37;;;;;;;5.18;2.67;;;;;;;-146.27;61.68;79265.72;5030078;28;20171;-70
2023/08/23 10:43:09;;;;;;;5.80;2.47;;;;;;;-146.27;63.15;79079.06;5032044;28;20025;-69
2023/08/23 10:45:55;;;;;;;7.47;2.65;;;;;;;-146.27;60.60;79034.91;5031259;28;20021;-70
2023/08/23 10:48:23;;;;;;;5.57;2.22;;;;;;;-146.27;58.39;79052.97;5019290;28;20044;-70
2023/08/23 10:50:49;;;;;;;4.95;2.10;;;;;;;-146.27;57.72;79131.25;5030100;28;20022;-69
2023/08/23 10:53:16;;;;;;;5.35;1.67;;;;;;;-146.27;57.21;79285.81;5031269;28;20710;-69
2023/08/23 10:55:42;;;;;;;4.47;2.00;;;;;;;-146.27;57.27;79360.06;5032166;28;20056;-71
2023/08/23 10:58:07;;;;;;;2.95;1.40;;;;;;;-146.27;55.37;79480.50;5032025;28;20378;-70
2023/08/23 11:00:33;;;;;;;6.38;1.73;;;;;;;-146.27;56.17;79406.25;5026541;28;20112;-70
2023/08/23 11:02:59;;;;;;;5.65;2.13;;;;;;;-146.27;55.37;79287.81;5028316;28;20021;-70